createdAt,value
2022-07-28T00:00:05.999Z,1.75
2022-07-28T00:01:11.126Z,3.50
2022-07-28T00:02:15.082Z,3.00
2022-07-28T00:03:18.876Z,2.50
2022-07-28T00:04:23.139Z,2.00
2022-07-28T00:05:26.923Z,2.75
2022-07-28T00:06:30.835Z,1.25
2022-07-28T00:07:34.730Z,1.75
2022-07-28T00:08:38.825Z,2.00
2022-07-28T00:09:43.133Z,1.50
2022-07-28T00:10:47.256Z,0.50
2022-07-28T00:11:54.517Z,2.00
2022-07-28T00:12:56.474Z,1.50
2022-07-28T00:14:00.468Z,1.50
2022-07-28T00:15:04.601Z,1.75
2022-07-28T00:16:08.712Z,1.00
2022-07-28T00:17:12.673Z,0.00
2022-07-28T00:18:16.807Z,1.00
2022-07-28T00:19:20.532Z,1.50
2022-07-28T00:20:24.580Z,1.25
2022-07-28T00:21:28.268Z,1.00
2022-07-28T00:22:32.176Z,1.50
2022-07-28T00:23:39.448Z,2.00
2022-07-28T00:24:40.886Z,2.50
2022-07-28T00:25:44.648Z,2.00
2022-07-28T00:26:48.379Z,1.50
2022-07-28T00:27:52.376Z,1.50
2022-07-28T00:28:56.380Z,1.25
2022-07-28T00:30:00.220Z,1.50
2022-07-28T00:31:07.195Z,1.00
2022-07-28T00:32:09.048Z,1.00
2022-07-28T00:33:12.906Z,1.25
2022-07-28T00:34:16.963Z,1.50
2022-07-28T00:35:29.074Z,1.00
2022-07-28T00:36:26.434Z,1.50
2022-07-28T00:37:30.502Z,0.50
2022-07-28T00:38:34.248Z,1.00
2022-07-28T00:39:39.165Z,1.00
2022-07-28T00:40:42.972Z,1.50
2022-07-28T00:41:46.919Z,0.50
2022-07-28T00:42:51.054Z,0.00
2022-07-28T00:43:56.196Z,0.50
2022-07-28T00:45:00.387Z,0.00
2022-07-28T00:46:04.730Z,1.00
2022-07-28T00:47:08.725Z,0.50
2022-07-28T00:48:12.811Z,0.00
2022-07-28T00:49:16.970Z,0.00
2022-07-28T00:50:21.019Z,1.50
2022-07-28T00:51:24.801Z,1.50
2022-07-28T00:52:29.013Z,1.50
2022-07-28T00:53:33.010Z,0.50
2022-07-28T00:54:36.702Z,0.50
2022-07-28T00:56:02.995Z,1.00
2022-07-28T00:56:45.628Z,0.50
2022-07-28T00:57:49.842Z,0.75
2022-07-28T00:58:54.044Z,0.50
2022-07-28T00:59:58.349Z,0.75
2022-07-28T01:01:02.560Z,2.50
2022-07-28T01:02:06.741Z,2.25
2022-07-28T01:03:10.860Z,2.00
2022-07-28T01:04:15.133Z,0.50
2022-07-28T01:05:43.516Z,0.00
2022-07-28T01:06:24.622Z,1.00
2022-07-28T01:07:28.518Z,1.00
2022-07-28T01:08:32.322Z,0.50
2022-07-28T01:09:36.205Z,0.00
2022-07-28T01:10:40.004Z,0.50
2022-07-28T01:11:44.488Z,0.75
2022-07-28T01:12:48.830Z,0.75
2022-07-28T01:13:52.820Z,1.00
2022-07-28T01:14:56.820Z,0.50
2022-07-28T01:16:00.882Z,0.00
2022-07-28T01:17:04.618Z,0.50
2022-07-28T01:18:08.425Z,2.00
2022-07-28T01:19:12.324Z,2.50
2022-07-28T01:20:16.108Z,0.50
2022-07-28T01:21:20.007Z,0.50
2022-07-28T01:22:24.067Z,1.25
2022-07-28T01:23:27.904Z,1.50
2022-07-28T01:24:31.904Z,1.00
2022-07-28T01:25:36.319Z,1.00
2022-07-28T01:26:40.213Z,1.50
2022-07-28T01:27:44.020Z,1.00
2022-07-28T01:28:47.918Z,0.00
2022-07-28T01:29:51.707Z,0.00
2022-07-28T01:30:55.647Z,0.00
2022-07-28T01:31:59.417Z,2.00
2022-07-28T01:33:03.166Z,3.00
2022-07-28T01:34:06.902Z,0.50
2022-07-28T01:35:10.687Z,0.00
2022-07-28T01:36:14.346Z,0.75
2022-07-28T01:37:18.341Z,1.00
2022-07-28T01:38:21.947Z,0.50
2022-07-28T01:39:25.520Z,0.50
2022-07-28T01:40:29.361Z,0.50
2022-07-28T01:41:33.467Z,0.50
2022-07-28T01:42:37.365Z,0.50
2022-07-28T01:43:44.753Z,0.50
2022-07-28T01:44:48.860Z,0.75
2022-07-28T01:45:53.102Z,0.00
2022-07-28T01:46:57.188Z,0.50
2022-07-28T01:48:00.953Z,0.50
2022-07-28T01:49:05.173Z,0.25
2022-07-28T01:50:09.261Z,1.00
2022-07-28T01:51:13.491Z,0.00
2022-07-28T01:52:17.493Z,0.00
2022-07-28T01:53:21.469Z,0.00
2022-07-28T01:54:25.684Z,0.00
2022-07-28T01:55:29.787Z,0.00
2022-07-28T01:56:33.791Z,2.00
2022-07-28T01:57:37.779Z,1.25
2022-07-28T01:58:42.092Z,0.00
2022-07-28T01:59:46.201Z,0.00
2022-07-28T02:00:50.404Z,0.00
2022-07-28T02:01:54.371Z,0.50
2022-07-28T02:02:58.408Z,0.50
2022-07-28T02:04:02.727Z,0.25
2022-07-28T02:05:07.157Z,0.00
2022-07-28T02:06:11.122Z,0.00
2022-07-28T02:07:15.230Z,0.00
2022-07-28T02:08:19.431Z,1.25
2022-07-28T02:09:23.123Z,1.00
2022-07-28T02:10:27.127Z,0.50
2022-07-28T02:11:30.818Z,0.00
2022-07-28T02:12:34.625Z,0.00
2022-07-28T02:13:38.310Z,1.00
2022-07-28T02:14:42.002Z,0.75
2022-07-28T02:15:45.694Z,0.00
2022-07-28T02:16:50.004Z,1.00
2022-07-28T02:17:54.004Z,2.00
2022-07-28T02:18:57.910Z,0.50
2022-07-28T02:20:01.799Z,0.00
2022-07-28T02:21:05.706Z,1.50
2022-07-28T02:22:09.598Z,1.50
2022-07-28T02:23:13.350Z,0.00
2022-07-28T02:24:17.467Z,0.75
2022-07-28T02:25:21.297Z,1.50
2022-07-28T02:26:25.208Z,0.50
2022-07-28T02:27:29.149Z,0.00
2022-07-28T02:28:34.011Z,1.00
2022-07-28T02:29:52.722Z,0.00
2022-07-28T02:30:42.759Z,0.00
2022-07-28T02:31:47.048Z,0.00
2022-07-28T02:32:51.447Z,0.00
2022-07-28T02:33:58.662Z,0.00
2022-07-28T02:35:01.606Z,0.50
2022-07-28T02:36:05.723Z,0.00
2022-07-28T02:37:10.869Z,0.00
2022-07-28T02:38:14.822Z,0.00
2022-07-28T02:39:19.045Z,0.00
2022-07-28T02:40:22.937Z,0.00
2022-07-28T02:41:26.842Z,0.00
2022-07-28T02:42:30.931Z,0.00
2022-07-28T02:43:49.509Z,0.50
2022-07-28T02:44:39.573Z,0.00
2022-07-28T02:45:43.474Z,0.00
2022-07-28T02:46:47.371Z,0.00
2022-07-28T02:47:51.047Z,0.50
2022-07-28T02:48:54.946Z,0.50
2022-07-28T02:49:58.751Z,1.00
2022-07-28T02:51:02.655Z,0.00
2022-07-28T02:52:06.536Z,0.00
2022-07-28T02:53:15.208Z,0.00
2022-07-28T02:54:15.659Z,0.50
2022-07-28T02:55:19.774Z,0.00
2022-07-28T02:56:23.544Z,0.00
2022-07-28T02:57:27.266Z,0.00
2022-07-28T02:58:31.161Z,0.00
2022-07-28T02:59:35.080Z,0.00
2022-07-28T03:00:38.909Z,1.00
2022-07-28T03:01:42.836Z,1.00
2022-07-28T03:02:46.678Z,1.50
2022-07-28T03:03:50.486Z,1.00
2022-07-28T03:04:55.435Z,0.25
2022-07-28T03:05:59.285Z,0.50
2022-07-28T03:07:03.280Z,1.50
2022-07-28T03:08:07.579Z,2.00
2022-07-28T03:09:11.465Z,0.00
2022-07-28T03:10:15.482Z,0.00
2022-07-28T03:11:19.489Z,0.00
2022-07-28T03:12:23.494Z,0.50
2022-07-28T03:13:27.241Z,0.50
2022-07-28T03:14:31.187Z,0.00
2022-07-28T03:15:34.983Z,0.00
2022-07-28T03:16:38.826Z,0.00
2022-07-28T03:17:42.684Z,0.00
2022-07-28T03:18:46.574Z,0.00
2022-07-28T03:19:50.753Z,0.00
2022-07-28T03:20:54.740Z,0.00
2022-07-28T03:21:58.732Z,0.00
2022-07-28T03:23:02.380Z,0.50
2022-07-28T03:24:06.060Z,1.50
2022-07-28T03:25:09.977Z,1.25
2022-07-28T03:26:13.961Z,0.00
2022-07-28T03:27:18.034Z,0.00
2022-07-28T03:28:21.662Z,0.00
2022-07-28T03:29:25.405Z,0.00
2022-07-28T03:30:29.203Z,0.00
2022-07-28T03:31:33.057Z,0.00
2022-07-28T03:32:36.810Z,0.00
2022-07-28T03:33:40.647Z,0.00
2022-07-28T03:34:44.448Z,0.00
2022-07-28T03:35:48.239Z,0.50
2022-07-28T03:36:51.919Z,0.75
2022-07-28T03:37:55.630Z,0.50
2022-07-28T03:38:59.207Z,0.00
2022-07-28T03:40:03.330Z,0.00
2022-07-28T03:41:07.210Z,0.00
2022-07-28T03:42:11.112Z,0.00
2022-07-28T03:43:15.011Z,0.00
2022-07-28T03:44:27.857Z,0.50
2022-07-28T03:45:23.830Z,0.75
2022-07-28T03:46:27.974Z,0.50
2022-07-28T03:47:31.745Z,0.00
2022-07-28T03:48:35.407Z,0.50
2022-07-28T03:49:39.120Z,0.50
2022-07-28T03:50:42.910Z,0.00
2022-07-28T03:51:46.670Z,0.00
2022-07-28T03:52:50.314Z,0.00
2022-07-28T03:53:54.208Z,0.00
2022-07-28T03:54:58.306Z,0.00
2022-07-28T03:56:02.099Z,0.00
2022-07-28T03:57:05.998Z,0.50
2022-07-28T03:58:09.931Z,0.50
2022-07-28T03:59:13.605Z,0.00
2022-07-28T04:00:17.508Z,0.00
2022-07-28T04:01:21.357Z,0.00
2022-07-28T04:02:25.121Z,0.00
2022-07-28T04:03:42.493Z,0.00
2022-07-28T04:04:33.800Z,1.00
2022-07-28T04:05:37.499Z,0.50
2022-07-28T04:06:41.176Z,0.25
2022-07-28T04:07:45.087Z,0.50
2022-07-28T04:08:48.786Z,0.50
2022-07-28T04:09:52.669Z,0.00
2022-07-28T04:10:56.687Z,0.00
2022-07-28T04:12:00.438Z,0.50
2022-07-28T04:13:04.177Z,0.00
2022-07-28T04:14:09.258Z,0.00
2022-07-28T04:15:13.317Z,0.00
2022-07-28T04:16:17.599Z,0.00
2022-07-28T04:17:21.609Z,0.00
2022-07-28T04:18:25.699Z,0.00
2022-07-28T04:19:29.311Z,0.00
2022-07-28T04:20:33.186Z,0.00
2022-07-28T04:21:37.125Z,0.00
2022-07-28T04:22:41.312Z,0.00
2022-07-28T04:23:45.309Z,0.00
2022-07-28T04:24:49.534Z,0.00
2022-07-28T04:25:53.511Z,0.00
2022-07-28T04:26:57.629Z,0.00
2022-07-28T04:28:01.705Z,0.00
2022-07-28T04:29:07.148Z,0.50
2022-07-28T04:30:11.157Z,0.00
2022-07-28T04:31:15.063Z,0.00
2022-07-28T04:32:18.854Z,0.00
2022-07-28T04:33:22.751Z,0.00
2022-07-28T04:34:26.657Z,0.50
2022-07-28T04:35:30.440Z,0.50
2022-07-28T04:36:34.365Z,0.00
2022-07-28T04:37:38.251Z,0.50
2022-07-28T04:38:42.069Z,0.00
2022-07-28T04:39:45.852Z,0.00
2022-07-28T04:40:49.743Z,0.00
2022-07-28T04:41:53.822Z,0.00
2022-07-28T04:42:57.731Z,0.50
2022-07-28T04:44:01.540Z,0.50
2022-07-28T04:45:05.221Z,0.00
2022-07-28T04:46:13.177Z,0.50
2022-07-28T04:47:13.947Z,0.50
2022-07-28T04:48:17.747Z,0.00
2022-07-28T04:49:22.537Z,1.50
2022-07-28T04:50:26.373Z,2.00
2022-07-28T04:51:30.252Z,1.00
2022-07-28T04:52:34.107Z,1.50
2022-07-28T04:53:37.707Z,0.50
2022-07-28T04:54:41.339Z,0.50
2022-07-28T04:55:45.668Z,0.00
2022-07-28T04:56:50.768Z,0.50
2022-07-28T04:57:54.842Z,0.50
2022-07-28T04:58:59.188Z,0.00
2022-07-28T05:00:03.827Z,0.50
2022-07-28T05:01:07.888Z,0.00
2022-07-28T05:02:12.009Z,0.00
2022-07-28T05:03:15.908Z,0.00
2022-07-28T05:04:19.850Z,0.00
2022-07-28T05:05:23.500Z,0.00
2022-07-28T05:06:27.582Z,0.25
2022-07-28T05:07:31.500Z,0.00
2022-07-28T05:08:35.278Z,0.00
2022-07-28T05:09:39.180Z,0.25
2022-07-28T05:10:42.896Z,0.50
2022-07-28T05:11:47.986Z,2.25
2022-07-28T05:12:52.021Z,1.00
2022-07-28T05:13:56.233Z,0.00
2022-07-28T05:15:00.329Z,0.00
2022-07-28T05:16:04.357Z,0.00
2022-07-28T05:17:08.435Z,0.00
2022-07-28T05:18:13.198Z,0.00
2022-07-28T05:19:17.244Z,0.00
2022-07-28T05:20:21.372Z,0.50
2022-07-28T05:21:25.181Z,0.50
2022-07-28T05:22:29.049Z,0.00
2022-07-28T05:23:32.851Z,0.00
2022-07-28T05:24:36.740Z,0.00
2022-07-28T05:25:40.296Z,0.00
2022-07-28T05:26:43.900Z,0.25
2022-07-28T05:27:47.632Z,0.50
2022-07-28T05:28:51.384Z,0.00
2022-07-28T05:29:54.910Z,0.00
2022-07-28T05:30:58.562Z,0.00
2022-07-28T05:32:16.788Z,0.25
2022-07-28T05:33:07.017Z,0.00
2022-07-28T05:34:11.083Z,0.00
2022-07-28T05:35:16.041Z,0.50
2022-07-28T05:36:19.868Z,1.00
2022-07-28T05:37:23.630Z,0.50
2022-07-28T05:38:27.429Z,0.00
2022-07-28T05:39:31.339Z,0.00
2022-07-28T05:40:35.011Z,0.00
2022-07-28T05:41:38.822Z,0.00
2022-07-28T05:42:42.732Z,3.00
2022-07-28T05:43:47.121Z,3.50
2022-07-28T05:44:51.020Z,0.75
2022-07-28T05:45:54.878Z,0.50
2022-07-28T05:46:58.585Z,0.50
2022-07-28T05:48:02.400Z,0.00
2022-07-28T05:49:06.160Z,0.25
2022-07-28T05:50:09.899Z,0.00
2022-07-28T05:51:13.709Z,2.25
2022-07-28T05:52:17.508Z,1.25
2022-07-28T05:53:22.424Z,0.00
2022-07-28T05:54:26.500Z,0.50
2022-07-28T05:55:30.125Z,0.00
2022-07-28T05:56:34.108Z,0.00
2022-07-28T05:57:37.920Z,0.00
2022-07-28T05:58:41.822Z,0.00
2022-07-28T05:59:45.818Z,0.50
2022-07-28T06:00:49.843Z,2.00
2022-07-28T06:01:53.975Z,1.00
2022-07-28T06:02:58.121Z,0.50
2022-07-28T06:04:26.829Z,1.00
2022-07-28T06:05:07.505Z,1.00
2022-07-28T06:06:14.922Z,0.00
2022-07-28T06:07:16.511Z,0.50
2022-07-28T06:08:20.493Z,0.00
2022-07-28T06:09:24.212Z,0.50
2022-07-28T06:10:28.284Z,1.00
2022-07-28T06:11:31.929Z,1.50
2022-07-28T06:12:35.770Z,1.00
2022-07-28T06:13:39.776Z,0.50
2022-07-28T06:14:43.622Z,0.50
2022-07-28T06:15:47.474Z,0.75
2022-07-28T06:16:51.673Z,1.50
2022-07-28T06:17:56.032Z,1.00
2022-07-28T06:18:59.763Z,1.00
2022-07-28T06:20:03.470Z,1.50
2022-07-28T06:21:07.469Z,1.50
2022-07-28T06:22:11.474Z,1.25
2022-07-28T06:23:15.382Z,1.00
2022-07-28T06:24:19.371Z,2.50
2022-07-28T06:25:23.035Z,2.25
2022-07-28T06:26:26.711Z,0.50
2022-07-28T06:27:30.332Z,0.50
2022-07-28T06:28:34.039Z,0.50
2022-07-28T06:29:37.940Z,0.25
2022-07-28T06:30:42.150Z,1.00
2022-07-28T06:31:46.038Z,1.00
2022-07-28T06:32:49.836Z,0.50
2022-07-28T06:33:53.651Z,1.00
2022-07-28T06:34:57.647Z,1.00
2022-07-28T06:36:01.448Z,1.50
2022-07-28T06:37:05.341Z,1.50
2022-07-28T06:38:09.349Z,0.00
2022-07-28T06:39:14.697Z,0.50
2022-07-28T06:40:18.477Z,0.00
2022-07-28T06:41:22.260Z,0.00
2022-07-28T06:42:26.679Z,0.00
2022-07-28T06:43:30.696Z,0.50
2022-07-28T06:44:57.479Z,0.50
2022-07-28T06:45:39.911Z,1.50
2022-07-28T06:46:43.868Z,2.00
2022-07-28T06:47:47.904Z,1.75
2022-07-28T06:48:51.851Z,1.50
2022-07-28T06:49:56.013Z,1.50
2022-07-28T06:50:59.939Z,1.00
2022-07-28T06:52:03.913Z,1.50
2022-07-28T06:53:07.813Z,1.50
2022-07-28T06:54:11.758Z,1.00
2022-07-28T06:55:15.609Z,1.25
2022-07-28T06:56:19.609Z,0.75
2022-07-28T06:57:24.380Z,2.25
2022-07-28T06:58:29.459Z,1.25
2022-07-28T06:59:33.249Z,2.50
2022-07-28T07:00:37.309Z,2.50
2022-07-28T07:01:41.154Z,0.25
2022-07-28T07:02:45.049Z,0.00
2022-07-28T07:03:48.920Z,0.50
2022-07-28T07:04:52.853Z,0.00
2022-07-28T07:05:56.640Z,0.00
2022-07-28T07:07:00.440Z,0.50
2022-07-28T07:08:05.468Z,0.00
2022-07-28T07:09:09.363Z,0.00
2022-07-28T07:10:13.176Z,0.00
2022-07-28T07:11:17.165Z,0.00
2022-07-28T07:12:20.967Z,0.50
2022-07-28T07:13:24.831Z,1.00
2022-07-28T07:14:28.658Z,1.50
2022-07-28T07:15:32.526Z,1.50
2022-07-28T07:16:37.463Z,1.25
2022-07-28T07:17:41.272Z,1.50
2022-07-28T07:18:45.168Z,1.00
2022-07-28T07:19:49.079Z,2.25
2022-07-28T07:20:52.729Z,2.25
2022-07-28T07:21:56.884Z,1.50
2022-07-28T07:23:00.858Z,1.50
2022-07-28T07:24:04.972Z,1.00
2022-07-28T07:25:09.049Z,1.00
2022-07-28T07:26:12.871Z,1.50
2022-07-28T07:27:16.874Z,1.50
2022-07-28T07:28:20.653Z,0.00
2022-07-28T07:29:24.568Z,1.00
2022-07-28T07:30:29.602Z,1.00
2022-07-28T07:31:33.319Z,1.00
2022-07-28T07:32:37.193Z,0.50
2022-07-28T07:33:41.189Z,0.50
2022-07-28T07:34:45.092Z,0.25
2022-07-28T07:35:49.308Z,1.00
2022-07-28T07:36:53.290Z,1.00
2022-07-28T07:37:57.490Z,0.50
2022-07-28T07:39:01.598Z,1.00
2022-07-28T07:40:05.680Z,1.50
2022-07-28T07:41:09.808Z,1.50
2022-07-28T07:42:15.029Z,0.75
2022-07-28T07:43:19.239Z,1.00
2022-07-28T07:44:23.242Z,1.50
2022-07-28T07:45:27.150Z,1.50
2022-07-28T07:46:31.222Z,1.00
2022-07-28T07:47:34.930Z,1.50
2022-07-28T07:48:38.687Z,1.75
2022-07-28T07:49:42.529Z,0.50
2022-07-28T07:50:51.853Z,0.75
2022-07-28T07:51:53.067Z,1.00
2022-07-28T07:52:56.971Z,0.50
2022-07-28T07:54:00.713Z,0.25
2022-07-28T07:55:04.479Z,1.00
2022-07-28T07:56:08.271Z,1.50
2022-07-28T07:57:12.170Z,1.00
2022-07-28T07:58:15.969Z,1.00
2022-07-28T07:59:19.880Z,1.00
2022-07-28T08:00:28.880Z,0.50
2022-07-28T08:01:28.641Z,1.50
2022-07-28T08:02:32.504Z,1.50
2022-07-28T08:03:36.334Z,1.50
2022-07-28T08:04:40.388Z,1.00
2022-07-28T08:05:44.242Z,1.00
2022-07-28T08:06:48.490Z,0.75
2022-07-28T08:07:52.293Z,1.00
2022-07-28T08:08:55.884Z,1.00
2022-07-28T08:09:59.634Z,0.50
2022-07-28T08:11:03.968Z,0.50
2022-07-28T08:12:07.899Z,1.00
2022-07-28T08:13:11.714Z,2.25
2022-07-28T08:14:15.817Z,1.00
2022-07-28T08:15:19.891Z,1.50
2022-07-28T08:16:23.754Z,2.50
2022-07-28T08:17:27.575Z,2.50
2022-07-28T08:18:31.269Z,2.00
2022-07-28T08:19:34.960Z,2.00
2022-07-28T08:20:38.790Z,2.00
2022-07-28T08:21:43.579Z,1.50
2022-07-28T08:22:47.279Z,2.00
2022-07-28T08:23:50.932Z,2.00
2022-07-28T08:24:54.835Z,1.75
2022-07-28T08:25:58.892Z,1.50
2022-07-28T08:27:02.592Z,1.25
2022-07-28T08:28:06.572Z,1.00
2022-07-28T08:29:10.375Z,1.75
2022-07-28T08:30:14.069Z,1.25
2022-07-28T08:31:19.130Z,2.00
2022-07-28T08:32:23.080Z,2.00
2022-07-28T08:33:26.887Z,1.25
2022-07-28T08:34:32.967Z,1.75
2022-07-28T08:35:35.855Z,1.50
2022-07-28T08:36:39.815Z,2.00
2022-07-28T08:37:43.699Z,2.00
2022-07-28T08:38:47.599Z,1.50
2022-07-28T08:39:51.404Z,2.50
2022-07-28T08:40:55.298Z,2.50
2022-07-28T08:41:59.402Z,2.50
2022-07-28T08:43:03.513Z,3.00
2022-07-28T08:44:07.618Z,3.00
2022-07-28T08:45:11.607Z,2.25
2022-07-28T08:46:15.593Z,2.75
2022-07-28T08:47:19.584Z,2.00
2022-07-28T08:48:23.617Z,2.00
2022-07-28T08:49:27.485Z,2.25
2022-07-28T08:50:31.610Z,2.00
2022-07-28T08:51:35.412Z,1.00
2022-07-28T08:52:39.325Z,0.75
2022-07-28T08:53:43.220Z,0.75
2022-07-28T08:54:47.109Z,0.50
2022-07-28T08:55:51.212Z,1.25
2022-07-28T08:56:54.901Z,2.50
2022-07-28T08:57:59.010Z,1.50
2022-07-28T08:59:03.017Z,1.00
2022-07-28T09:00:07.327Z,1.50
2022-07-28T09:01:11.378Z,1.50
2022-07-28T09:02:15.654Z,1.00
2022-07-28T09:03:19.786Z,1.00
2022-07-28T09:04:24.038Z,0.75
2022-07-28T09:05:27.832Z,1.00
2022-07-28T09:06:31.895Z,1.00
2022-07-28T09:07:35.539Z,2.00
2022-07-28T09:08:39.224Z,0.50
2022-07-28T09:09:43.031Z,2.00
2022-07-28T09:10:46.826Z,0.75
2022-07-28T09:11:50.676Z,1.00
2022-07-28T09:12:54.660Z,1.00
2022-07-28T09:13:58.604Z,2.00
2022-07-28T09:15:02.426Z,1.50
2022-07-28T09:16:06.270Z,2.50
2022-07-28T09:17:10.002Z,1.75
2022-07-28T09:18:13.899Z,1.25
2022-07-28T09:19:18.621Z,1.00
2022-07-28T09:20:22.628Z,1.50
2022-07-28T09:21:26.265Z,1.50
2022-07-28T09:22:30.119Z,1.00
2022-07-28T09:23:42.423Z,1.00
2022-07-28T09:24:38.928Z,1.50
2022-07-28T09:25:42.724Z,1.75
2022-07-28T09:26:46.631Z,1.50
2022-07-28T09:27:50.419Z,2.00
2022-07-28T09:28:54.320Z,2.00
2022-07-28T09:29:58.322Z,2.00
2022-07-28T09:31:02.243Z,1.50
2022-07-28T09:32:06.208Z,2.25
2022-07-28T09:33:10.228Z,2.50
2022-07-28T09:34:15.478Z,1.75
2022-07-28T09:35:19.532Z,1.75
2022-07-28T09:36:23.323Z,2.00
2022-07-28T09:37:28.009Z,2.00
2022-07-28T09:38:32.397Z,1.50
2022-07-28T09:39:36.170Z,2.00
2022-07-28T09:40:40.071Z,1.50
2022-07-28T09:41:43.992Z,1.50
2022-07-28T09:42:47.893Z,1.75
2022-07-28T09:43:54.855Z,2.00
2022-07-28T09:45:21.395Z,1.50
2022-07-28T09:46:02.267Z,1.25
2022-07-28T09:47:06.466Z,1.00
2022-07-28T09:48:11.134Z,1.50
2022-07-28T09:49:15.432Z,1.50
2022-07-28T09:50:19.361Z,1.50
2022-07-28T09:51:23.260Z,1.75
2022-07-28T09:52:27.385Z,1.50
2022-07-28T09:53:31.160Z,2.00
2022-07-28T09:54:40.295Z,2.00
2022-07-28T09:55:39.987Z,1.00
2022-07-28T09:56:43.898Z,0.00
2022-07-28T09:57:47.668Z,1.00
2022-07-28T09:58:52.471Z,0.50
2022-07-28T09:59:56.303Z,1.00
2022-07-28T10:01:00.474Z,2.00
2022-07-28T10:02:04.807Z,1.50
2022-07-28T10:03:09.874Z,1.75
2022-07-28T10:04:14.059Z,1.00
2022-07-28T10:05:18.343Z,1.25
2022-07-28T10:06:22.320Z,1.00
2022-07-28T10:07:26.459Z,1.00
2022-07-28T10:08:31.047Z,0.00
2022-07-28T10:09:35.559Z,0.50
2022-07-28T10:10:39.968Z,1.00
2022-07-28T10:11:44.291Z,1.00
2022-07-28T10:12:48.580Z,1.00
2022-07-28T10:13:52.713Z,1.50
2022-07-28T10:14:57.001Z,1.25
2022-07-28T10:16:01.133Z,2.00
2022-07-28T10:17:06.355Z,1.50
2022-07-28T10:18:10.846Z,1.00
2022-07-28T10:19:15.249Z,1.00
2022-07-28T10:20:19.865Z,0.75
2022-07-28T10:21:24.041Z,0.50
2022-07-28T10:22:28.283Z,1.00
2022-07-28T10:23:32.125Z,1.00
2022-07-28T10:24:36.484Z,0.75
2022-07-28T10:25:40.495Z,1.00
2022-07-28T10:26:44.587Z,1.00
2022-07-28T10:27:48.687Z,0.50
2022-07-28T10:28:53.100Z,0.00
2022-07-28T10:29:57.007Z,0.00
2022-07-28T10:31:01.311Z,1.00
2022-07-28T10:32:05.538Z,0.50
2022-07-28T10:33:10.024Z,1.50
2022-07-28T10:34:16.370Z,1.50
2022-07-28T10:35:19.975Z,0.00
2022-07-28T10:36:24.352Z,1.00
2022-07-28T10:37:28.489Z,1.00
2022-07-28T10:38:32.657Z,0.50
2022-07-28T10:39:36.602Z,0.50
2022-07-28T10:40:41.504Z,0.25
2022-07-28T10:41:45.606Z,1.00
2022-07-28T10:42:49.727Z,1.00
2022-07-28T10:43:54.142Z,1.00
2022-07-28T10:44:58.545Z,1.00
2022-07-28T10:46:06.316Z,0.50
2022-07-28T10:47:08.425Z,0.50
2022-07-28T10:48:12.905Z,0.00
2022-07-28T10:49:17.476Z,1.00
2022-07-28T10:50:22.452Z,0.25
2022-07-28T10:51:28.173Z,1.00
2022-07-28T10:52:50.198Z,1.00
2022-07-28T10:53:38.140Z,1.00
2022-07-28T10:54:43.259Z,1.00
2022-07-28T10:55:47.359Z,0.50
2022-07-28T10:56:51.979Z,0.25
2022-07-28T10:58:02.146Z,0.00
2022-07-28T10:59:04.674Z,1.00
2022-07-28T11:00:20.386Z,1.50
2022-07-28T11:01:26.648Z,0.50
2022-07-28T11:02:18.506Z,1.00
2022-07-28T11:03:23.967Z,1.00
2022-07-28T11:04:29.507Z,0.50
2022-07-28T11:05:33.560Z,0.50
2022-07-28T11:06:37.506Z,0.75
2022-07-28T11:07:41.824Z,1.50
2022-07-28T11:08:47.708Z,1.00
2022-07-28T11:09:51.046Z,0.50
2022-07-28T11:11:00.658Z,0.50
2022-07-28T11:12:00.479Z,1.00
2022-07-28T11:13:04.461Z,0.50
2022-07-28T11:14:08.588Z,0.50
2022-07-28T11:15:18.180Z,1.50
2022-07-28T11:16:17.951Z,0.75
2022-07-28T11:17:24.396Z,0.75
2022-07-28T11:18:27.390Z,1.50
2022-07-28T11:19:40.740Z,0.50
2022-07-28T11:20:37.517Z,0.75
2022-07-28T11:21:43.686Z,0.75
2022-07-28T11:22:46.902Z,1.00
2022-07-28T11:23:54.939Z,0.75
2022-07-28T11:25:00.439Z,1.00
2022-07-28T11:26:05.909Z,0.50
2022-07-28T11:27:11.350Z,0.25
2022-07-28T11:28:15.550Z,0.00
2022-07-28T11:29:19.963Z,1.00
2022-07-28T11:30:24.295Z,1.25
2022-07-28T11:31:28.334Z,0.50
2022-07-28T11:32:42.291Z,1.50
2022-07-28T11:33:37.458Z,1.00
2022-07-28T11:34:42.651Z,1.50
2022-07-28T11:35:46.748Z,0.75
2022-07-28T11:36:54.113Z,0.50
2022-07-28T11:37:58.419Z,0.50
2022-07-28T11:39:02.728Z,1.00
2022-07-28T11:40:07.036Z,1.00
2022-07-28T11:41:11.548Z,1.00
2022-07-28T11:42:15.651Z,0.00
2022-07-28T11:43:20.171Z,0.50
2022-07-28T11:44:25.607Z,1.00
2022-07-28T11:45:37.739Z,1.50
2022-07-28T11:46:35.583Z,1.50
2022-07-28T11:47:40.776Z,1.00
2022-07-28T11:48:45.196Z,0.00
2022-07-28T11:49:49.299Z,0.75
2022-07-28T11:50:53.572Z,0.75
2022-07-28T11:51:58.123Z,1.00
2022-07-28T11:53:02.342Z,1.00
2022-07-28T11:54:06.626Z,0.50
2022-07-28T11:55:10.925Z,0.50
2022-07-28T11:56:15.041Z,0.00
2022-07-28T11:57:19.369Z,0.50
2022-07-28T11:58:23.639Z,0.50
2022-07-28T11:59:36.508Z,0.75
2022-07-28T12:00:34.643Z,0.50
2022-07-28T12:01:38.839Z,1.00
2022-07-28T12:02:43.108Z,1.00
2022-07-28T12:03:50.168Z,1.25
2022-07-28T12:04:52.598Z,1.00
2022-07-28T12:05:56.989Z,1.50
2022-07-28T12:07:01.166Z,0.50
2022-07-28T12:08:05.575Z,0.50
2022-07-28T12:09:11.050Z,1.50
2022-07-28T12:10:25.949Z,1.00
2022-07-28T12:11:20.787Z,0.50
2022-07-28T12:12:25.087Z,0.50
2022-07-28T12:13:29.505Z,1.00
2022-07-28T12:14:38.567Z,1.00
2022-07-28T12:15:38.934Z,1.50
2022-07-28T12:16:43.158Z,1.25
2022-07-28T12:17:47.101Z,1.50
2022-07-28T12:18:52.065Z,1.25
2022-07-28T12:19:56.174Z,2.00
2022-07-28T12:21:05.128Z,1.50
2022-07-28T12:22:06.335Z,0.50
2022-07-28T12:23:10.426Z,1.00
2022-07-28T12:24:14.744Z,0.00
2022-07-28T12:25:20.061Z,1.50
2022-07-28T12:26:26.147Z,1.25
2022-07-28T12:27:31.832Z,1.75
2022-07-28T12:28:34.686Z,1.50
2022-07-28T12:29:38.626Z,1.25
2022-07-28T12:30:43.688Z,1.50
2022-07-28T12:31:47.807Z,0.50
2022-07-28T12:32:53.103Z,0.75
2022-07-28T12:33:57.304Z,1.00
2022-07-28T12:35:01.371Z,1.00
2022-07-28T12:36:05.340Z,0.50
2022-07-28T12:37:09.425Z,0.50
2022-07-28T12:38:13.502Z,1.00
2022-07-28T12:39:17.607Z,1.75
2022-07-28T12:40:27.354Z,1.50
2022-07-28T12:41:26.813Z,1.00
2022-07-28T12:42:30.866Z,0.50
2022-07-28T12:43:35.148Z,0.25
2022-07-28T12:44:39.373Z,0.00
2022-07-28T12:45:43.436Z,0.50
2022-07-28T12:46:47.449Z,1.25
2022-07-28T12:47:51.561Z,0.50
2022-07-28T12:48:55.888Z,1.00
2022-07-28T12:50:03.612Z,1.25
2022-07-28T12:51:05.536Z,0.50
2022-07-28T12:52:11.152Z,1.25
2022-07-28T12:53:15.161Z,0.75
2022-07-28T12:54:19.866Z,1.00
2022-07-28T12:55:25.102Z,1.00
2022-07-28T12:56:29.326Z,0.75
2022-07-28T12:57:33.508Z,1.00
2022-07-28T12:58:37.714Z,1.50
2022-07-28T12:59:41.642Z,1.50
2022-07-28T13:00:45.548Z,0.25
2022-07-28T13:01:49.632Z,0.50
2022-07-28T13:02:55.382Z,1.00
2022-07-28T13:03:59.126Z,2.00
2022-07-28T13:05:03.366Z,2.00
2022-07-28T13:06:07.432Z,1.50
2022-07-28T13:07:11.666Z,1.00
2022-07-28T13:08:15.860Z,1.00
2022-07-28T13:09:21.067Z,0.25
2022-07-28T13:10:26.648Z,0.50
2022-07-28T13:11:47.758Z,0.75
2022-07-28T13:12:36.791Z,1.00
2022-07-28T13:13:40.794Z,1.00
2022-07-28T13:14:44.999Z,1.00
2022-07-28T13:15:51.963Z,0.50
2022-07-28T13:16:54.510Z,0.50
2022-07-28T13:17:58.661Z,0.50
2022-07-28T13:19:02.956Z,1.00
2022-07-28T13:20:07.256Z,1.50
2022-07-28T13:21:11.465Z,0.50
2022-07-28T13:22:15.761Z,0.50
2022-07-28T13:23:19.978Z,0.50
2022-07-28T13:24:24.288Z,1.00
2022-07-28T13:25:28.490Z,1.00
2022-07-28T13:26:32.571Z,0.25
2022-07-28T13:27:36.619Z,1.50
2022-07-28T13:28:40.801Z,0.75
2022-07-28T13:29:44.771Z,0.00
2022-07-28T13:30:48.907Z,0.50
2022-07-28T13:31:52.955Z,0.50
2022-07-28T13:32:57.161Z,1.00
2022-07-28T13:34:01.288Z,0.50
2022-07-28T13:35:05.593Z,2.00
2022-07-28T13:36:09.943Z,1.25
2022-07-28T13:37:14.040Z,0.50
2022-07-28T13:38:18.140Z,1.50
2022-07-28T13:39:22.248Z,1.50
2022-07-28T13:40:26.349Z,0.75
2022-07-28T13:41:56.130Z,1.50
2022-07-28T13:42:35.507Z,1.50
2022-07-28T13:43:40.590Z,1.00
2022-07-28T13:44:44.709Z,2.00
2022-07-28T13:45:48.990Z,1.50
2022-07-28T13:46:53.022Z,1.75
2022-07-28T13:47:58.255Z,1.00
2022-07-28T13:49:02.128Z,1.50
2022-07-28T13:50:06.266Z,1.00
2022-07-28T13:51:10.452Z,0.50
2022-07-28T13:52:14.455Z,1.25
2022-07-28T13:53:18.536Z,1.25
2022-07-28T13:54:22.560Z,1.50
2022-07-28T13:55:27.792Z,1.00
2022-07-28T13:56:31.749Z,0.50
2022-07-28T13:57:36.598Z,1.00
2022-07-28T13:58:40.919Z,2.00
2022-07-28T13:59:46.049Z,2.00
2022-07-28T14:00:50.237Z,1.25
2022-07-28T14:01:54.254Z,1.50
2022-07-28T14:02:58.642Z,2.00
2022-07-28T14:04:02.663Z,2.75
2022-07-28T14:05:06.588Z,4.00
2022-07-28T14:06:10.570Z,3.25
2022-07-28T14:07:14.600Z,2.25
2022-07-28T14:08:20.106Z,2.00
2022-07-28T14:09:25.443Z,3.25
2022-07-28T14:10:29.686Z,2.00
2022-07-28T14:11:36.390Z,1.50
2022-07-28T14:12:39.179Z,2.50
2022-07-28T14:13:43.297Z,1.75